Terminal Aerodrome Forecast
Issued by NWS North Platte, NE

Home | Current Version | Previous Version | Graphics & Text | Print | Product List | Glossary On
Versions: 1 2 3 4 5 6 7 8 9 10 11 12 13 14 15 16 17 18 19 20
000
FTUS43 KLBF 290600 AAA
TAFVTN
TAF AMD
KVTN 290627Z 2906/3006 32008KT P6SM FEW060 OVC150
     FM291600 35016G25KT P6SM OVC035
      TEMPO 2916/2920 SHRA OVC035
     FM300000 36007KT P6SM BKN050=

USA.gov is the U.S. government's official web portal to all federal, state and local government web resources and services.